Time;durP1;ratioP1;P1;durP2;ratioP2;P2;SDS_P1;SDS_P2;PMS_P1;PMS_P2;Temp;Humidity;BMP_temperature;BMP_pressure;BME280_temperature;BME280_humidity;BME280_pressure;Samples;Min_cycle;Max_cycle;Signal;HPM_P1;HPM_P2
2023/12/25 00:02:11;;;;;;;2.33;0.80;;;11.10;99.90;;;;;;5011008;28;20065;-79
2023/12/25 00:04:38;;;;;;;1.45;0.82;;;11.10;99.90;;;;;;5015559;28;20137;-79
2023/12/25 00:07:07;;;;;;;0.52;0.43;;;11.10;99.90;;;;;;5014216;28;20281;-79
2023/12/25 00:09:34;;;;;;;0.35;0.35;;;11.10;99.90;;;;;;5017062;28;20413;-79
2023/12/25 00:12:00;;;;;;;0.82;0.60;;;11.10;99.90;;;;;;5020074;28;20038;-79
2023/12/25 00:14:27;;;;;;;1.75;0.60;;;11.10;99.90;;;;;;4993519;28;20048;-79
2023/12/25 00:16:54;;;;;;;0.77;0.50;;;11.10;99.90;;;;;;5012149;28;20096;-79
2023/12/25 00:19:21;;;;;;;0.82;0.55;;;11.10;99.90;;;;;;5008550;28;20076;-79
2023/12/25 00:21:47;;;;;;;2.08;0.75;;;11.10;99.90;;;;;;5015201;28;20089;-79
2023/12/25 00:24:14;;;;;;;1.27;0.60;;;11.10;99.90;;;;;;5010915;28;20120;-79
2023/12/25 00:26:42;;;;;;;0.85;0.50;;;11.10;99.90;;;;;;4997536;28;20041;-78
2023/12/25 00:29:09;;;;;;;0.80;0.55;;;11.10;99.90;;;;;;5010035;28;20042;-79
2023/12/25 00:31:35;;;;;;;0.60;0.57;;;11.20;99.90;;;;;;5014739;28;20088;-79
2023/12/25 00:34:02;;;;;;;1.65;0.60;;;11.20;99.90;;;;;;5008200;28;20774;-79
2023/12/25 00:36:29;;;;;;;0.73;0.60;;;11.20;99.90;;;;;;5018554;28;20140;-79
2023/12/25 00:38:56;;;;;;;1.73;0.63;;;11.20;99.90;;;;;;5014635;28;20041;-80
2023/12/25 00:41:23;;;;;;;0.90;0.40;;;11.20;99.90;;;;;;5003346;28;20519;-79
2023/12/25 00:43:50;;;;;;;0.77;0.50;;;11.30;99.90;;;;;;5013522;28;20133;-79
2023/12/25 00:46:17;;;;;;;0.50;0.50;;;11.30;99.90;;;;;;5015862;28;20502;-80
2023/12/25 00:48:43;;;;;;;0.75;0.50;;;11.30;99.90;;;;;;5013503;28;20509;-80
2023/12/25 00:51:10;;;;;;;0.70;0.50;;;11.30;99.90;;;;;;5014444;28;20046;-80
2023/12/25 00:53:37;;;;;;;1.73;0.88;;;11.40;99.90;;;;;;5021431;28;20049;-81
2023/12/25 00:56:05;;;;;;;1.60;0.52;;;11.40;99.90;;;;;;5015425;28;20137;-81
2023/12/25 00:58:31;;;;;;;0.40;0.40;;;11.40;99.90;;;;;;5015350;28;20497;-78
2023/12/25 01:00:58;;;;;;;1.08;0.57;;;11.40;99.90;;;;;;5008072;28;20395;-79
2023/12/25 01:03:25;;;;;;;1.00;0.55;;;11.40;99.90;;;;;;5021559;28;20042;-80
2023/12/25 01:05:52;;;;;;;1.00;0.55;;;11.50;99.90;;;;;;5010513;28;20054;-79
2023/12/25 01:08:19;;;;;;;1.05;0.82;;;11.40;99.90;;;;;;5020301;28;20744;-79
2023/12/25 01:10:46;;;;;;;0.60;0.50;;;11.50;99.90;;;;;;5005097;28;20469;-78
2023/12/25 01:13:13;;;;;;;0.40;0.40;;;11.40;99.90;;;;;;5015463;28;20092;-79
2023/12/25 01:15:40;;;;;;;0.77;0.50;;;11.40;99.90;;;;;;5010782;28;20049;-79
2023/12/25 01:18:07;;;;;;;0.47;0.47;;;11.40;99.90;;;;;;5013474;28;20068;-79
2023/12/25 01:20:34;;;;;;;0.93;0.52;;;11.40;99.90;;;;;;5009223;28;20480;-79
2023/12/25 01:23:00;;;;;;;1.95;0.60;;;11.40;99.90;;;;;;5010838;28;20490;-78
2023/12/25 01:25:30;;;;;;;1.58;0.65;;;11.40;99.90;;;;;;4994401;28;20497;-79
2023/12/25 01:27:57;;;;;;;0.60;0.60;;;11.40;99.90;;;;;;5009220;28;20120;-80
2023/12/25 01:30:23;;;;;;;0.57;0.50;;;11.40;99.90;;;;;;5013226;28;20481;-79
2023/12/25 01:32:50;;;;;;;0.60;0.55;;;11.30;99.90;;;;;;5005412;28;20046;-79
2023/12/25 01:35:17;;;;;;;0.50;0.50;;;11.30;99.90;;;;;;5018977;28;20051;-81
2023/12/25 01:37:44;;;;;;;0.80;0.60;;;11.30;99.90;;;;;;5014397;28;20057;-80
2023/12/25 01:40:10;;;;;;;1.63;0.50;;;11.20;99.90;;;;;;4999777;28;20042;-79
2023/12/25 01:42:41;;;;;;;0.70;0.50;;;11.20;99.90;;;;;;5008216;28;20136;-79
2023/12/25 01:45:10;;;;;;;0.52;0.45;;;11.20;99.90;;;;;;5008470;28;20070;-79
2023/12/25 01:47:37;;;;;;;3.35;0.65;;;11.20;99.90;;;;;;5010018;28;20051;-79
2023/12/25 01:50:06;;;;;;;0.68;0.50;;;11.20;99.90;;;;;;5011348;28;20038;-79
2023/12/25 01:52:32;;;;;;;0.52;0.52;;;11.20;99.90;;;;;;5009466;28;20041;-79
2023/12/25 01:54:59;;;;;;;1.17;0.47;;;11.20;99.90;;;;;;5010597;28;20406;-79
2023/12/25 01:57:28;;;;;;;0.57;0.43;;;11.20;99.90;;;;;;5016699;28;20096;-80
2023/12/25 01:59:55;;;;;;;0.50;0.40;;;11.20;99.90;;;;;;5012072;28;20461;-80
2023/12/25 02:02:23;;;;;;;0.40;0.40;;;11.20;99.90;;;;;;5018342;28;20458;-79
2023/12/25 02:04:49;;;;;;;0.80;0.60;;;11.20;99.90;;;;;;5010471;28;20050;-77
2023/12/25 02:07:17;;;;;;;1.30;0.40;;;11.10;99.90;;;;;;5010780;28;20459;-79
2023/12/25 02:09:51;;;;;;;1.08;0.50;;;11.10;99.90;;;;;;4988982;28;20042;-79
2023/12/25 02:12:18;;;;;;;0.90;0.60;;;11.10;99.90;;;;;;5000799;28;20061;-79
2023/12/25 02:14:45;;;;;;;0.57;0.50;;;11.10;99.90;;;;;;5007000;28;20073;-80
2023/12/25 02:17:12;;;;;;;0.50;0.50;;;11.00;99.90;;;;;;5014489;28;20046;-79
2023/12/25 02:19:41;;;;;;;1.10;0.40;;;11.00;99.90;;;;;;5009122;28;20103;-79
2023/12/25 02:22:08;;;;;;;2.95;0.50;;;10.90;99.90;;;;;;5013585;28;20077;-79
2023/12/25 02:24:47;;;;;;;0.40;0.40;;;10.90;99.90;;;;;;5013869;28;20042;-79
2023/12/25 02:27:14;;;;;;;0.40;0.40;;;10.90;99.90;;;;;;5013207;28;20046;-79
2023/12/25 02:29:40;;;;;;;1.02;0.47;;;10.80;99.90;;;;;;5014921;28;20100;-79
2023/12/25 02:32:07;;;;;;;0.40;0.40;;;10.80;99.90;;;;;;5008542;28;20061;-79
2023/12/25 02:34:34;;;;;;;0.68;0.50;;;10.80;99.90;;;;;;5011059;28;20077;-81
2023/12/25 02:37:00;;;;;;;1.27;0.50;;;10.80;99.90;;;;;;4997646;28;20133;-79
2023/12/25 02:39:27;;;;;;;1.73;0.50;;;10.70;99.90;;;;;;5014369;28;20103;-80
2023/12/25 02:41:54;;;;;;;1.58;0.52;;;10.70;99.90;;;;;;5012444;28;20109;-79
2023/12/25 02:44:20;;;;;;;0.80;0.50;;;10.70;99.90;;;;;;5029798;28;20449;-79
2023/12/25 02:46:47;;;;;;;0.75;0.70;;;10.70;99.90;;;;;;5011878;28;20422;-80
2023/12/25 02:49:14;;;;;;;1.38;0.63;;;10.70;99.90;;;;;;5019798;28;20418;-80
2023/12/25 02:51:41;;;;;;;0.65;0.57;;;10.70;99.90;;;;;;5014767;28;20091;-79
2023/12/25 02:54:07;;;;;;;1.15;0.68;;;10.70;99.90;;;;;;5016811;28;20084;-81
2023/12/25 02:56:34;;;;;;;0.73;0.60;;;10.60;99.90;;;;;;5015136;28;20088;-80
2023/12/25 02:59:01;;;;;;;0.70;0.47;;;10.60;99.90;;;;;;5019984;28;20105;-79
2023/12/25 03:01:27;;;;;;;1.23;0.77;;;10.60;99.90;;;;;;5011316;28;20141;-80
2023/12/25 03:03:54;;;;;;;0.93;0.70;;;10.60;99.90;;;;;;5019470;28;20042;-79
2023/12/25 03:06:21;;;;;;;0.95;0.63;;;10.60;99.90;;;;;;5014969;28;20522;-80
2023/12/25 03:08:48;;;;;;;0.85;0.60;;;10.60;99.90;;;;;;5013001;28;20485;-79
2023/12/25 03:11:15;;;;;;;2.22;0.68;;;10.50;99.90;;;;;;5012546;28;20058;-80
2023/12/25 03:13:42;;;;;;;0.82;0.60;;;10.50;99.90;;;;;;5012980;28;20042;-80
2023/12/25 03:16:09;;;;;;;1.77;0.95;;;10.50;99.90;;;;;;5018767;28;20125;-79
2023/12/25 03:18:35;;;;;;;1.85;0.60;;;10.50;99.90;;;;;;5015090;28;20088;-77
2023/12/25 03:21:03;;;;;;;1.45;0.70;;;10.50;99.90;;;;;;5018662;28;20449;-79
2023/12/25 03:23:29;;;;;;;1.55;0.73;;;10.50;99.90;;;;;;5011199;28;20053;-79
2023/12/25 03:25:57;;;;;;;0.55;0.50;;;10.40;99.90;;;;;;5014874;28;20038;-79
2023/12/25 03:28:23;;;;;;;1.08;0.77;;;10.40;99.90;;;;;;5017823;28;20060;-79
2023/12/25 03:30:50;;;;;;;1.17;0.80;;;10.30;99.90;;;;;;5017553;28;20052;-79
2023/12/25 03:33:17;;;;;;;1.58;0.80;;;10.30;99.90;;;;;;5010239;28;20062;-80
2023/12/25 03:35:44;;;;;;;2.38;0.77;;;10.30;99.90;;;;;;5020036;28;20045;-79
2023/12/25 03:38:12;;;;;;;1.27;0.80;;;10.30;99.90;;;;;;5015069;28;20407;-79
2023/12/25 03:40:39;;;;;;;1.50;0.70;;;10.20;99.90;;;;;;5018163;28;20053;-81
2023/12/25 03:43:06;;;;;;;0.80;0.68;;;10.20;99.90;;;;;;5014545;28;20041;-79
2023/12/25 03:45:33;;;;;;;2.70;0.70;;;10.20;99.90;;;;;;5015358;28;20103;-78
2023/12/25 03:47:59;;;;;;;0.98;0.80;;;10.10;99.90;;;;;;5020519;28;20042;-80
2023/12/25 03:50:26;;;;;;;1.15;0.95;;;10.10;99.90;;;;;;5016110;28;20071;-80
2023/12/25 03:52:53;;;;;;;0.75;0.70;;;10.10;99.90;;;;;;5018610;28;20037;-79
2023/12/25 03:55:20;;;;;;;0.85;0.68;;;10.10;99.90;;;;;;5011036;28;20047;-79
2023/12/25 03:57:46;;;;;;;1.40;0.90;;;10.00;99.90;;;;;;5016534;28;20076;-79
2023/12/25 04:00:14;;;;;;;1.10;0.77;;;10.00;99.90;;;;;;5012814;28;20125;-78
2023/12/25 04:02:40;;;;;;;0.70;0.52;;;10.00;99.90;;;;;;5022567;28;20091;-78
2023/12/25 04:05:09;;;;;;;1.45;0.73;;;10.00;99.90;;;;;;5008257;28;20137;-79
2023/12/25 04:07:36;;;;;;;3.28;0.70;;;9.90;99.90;;;;;;5018800;28;20069;-79
2023/12/25 04:10:04;;;;;;;0.85;0.60;;;9.90;99.90;;;;;;5012289;28;20125;-79
2023/12/25 04:12:30;;;;;;;3.05;0.75;;;9.90;99.90;;;;;;5016378;28;20095;-79
2023/12/25 04:14:57;;;;;;;2.30;0.60;;;9.90;99.90;;;;;;5012376;28;20049;-78
2023/12/25 04:17:26;;;;;;;1.30;0.85;;;9.90;99.90;;;;;;5014275;28;20101;-78
2023/12/25 04:19:52;;;;;;;2.85;1.02;;;9.90;99.90;;;;;;5010142;28;20041;-80
2023/12/25 04:22:19;;;;;;;2.28;0.90;;;9.80;99.90;;;;;;5011875;28;20109;-78
2023/12/25 04:24:46;;;;;;;1.02;0.60;;;9.80;99.90;;;;;;5016039;28;20061;-78
2023/12/25 04:27:13;;;;;;;1.17;0.60;;;9.80;99.90;;;;;;5009711;28;20158;-78
2023/12/25 04:29:39;;;;;;;1.52;0.60;;;9.70;99.90;;;;;;5009969;28;20045;-78
2023/12/25 04:32:06;;;;;;;1.63;0.70;;;9.70;99.90;;;;;;5009861;28;20062;-78
2023/12/25 04:34:33;;;;;;;0.93;0.70;;;9.70;99.90;;;;;;5022380;28;20463;-80
2023/12/25 04:36:59;;;;;;;0.82;0.70;;;9.70;99.90;;;;;;5010431;28;20084;-81
2023/12/25 04:39:26;;;;;;;1.08;0.77;;;9.70;99.90;;;;;;5021585;28;20466;-78
2023/12/25 04:41:53;;;;;;;2.08;0.82;;;9.70;99.90;;;;;;5001086;28;20131;-77
2023/12/25 04:44:20;;;;;;;1.30;0.77;;;9.70;99.90;;;;;;5016524;28;20046;-78
2023/12/25 04:46:46;;;;;;;1.73;0.80;;;9.60;99.90;;;;;;5011664;28;20069;-78
2023/12/25 04:49:13;;;;;;;1.60;0.90;;;9.60;99.90;;;;;;5006976;28;20103;-78
2023/12/25 04:51:40;;;;;;;1.05;0.65;;;9.60;99.90;;;;;;5009223;28;20132;-79
2023/12/25 04:54:07;;;;;;;0.60;0.57;;;9.50;99.90;;;;;;5012750;28;20073;-77
2023/12/25 04:56:34;;;;;;;3.03;1.00;;;9.50;99.90;;;;;;5014830;28;20141;-77
2023/12/25 04:59:00;;;;;;;0.65;0.60;;;9.50;99.90;;;;;;4989321;28;20069;-78
2023/12/25 05:01:27;;;;;;;0.73;0.60;;;9.40;99.90;;;;;;5014165;28;20050;-78
2023/12/25 05:03:54;;;;;;;0.88;0.80;;;9.40;99.90;;;;;;5011628;28;20049;-78
2023/12/25 05:06:21;;;;;;;1.52;0.70;;;9.40;99.90;;;;;;5016191;28;20128;-78
2023/12/25 05:08:48;;;;;;;1.10;0.60;;;9.30;99.90;;;;;;4992299;28;20046;-78
2023/12/25 05:11:14;;;;;;;1.58;0.70;;;9.30;99.90;;;;;;5017632;28;20053;-78
2023/12/25 05:13:41;;;;;;;1.05;0.70;;;9.10;99.90;;;;;;5013102;28;20124;-77
2023/12/25 05:16:08;;;;;;;1.85;0.75;;;9.20;99.90;;;;;;5014978;28;20073;-77
2023/12/25 05:18:34;;;;;;;1.70;0.70;;;9.20;99.90;;;;;;4999461;28;20554;-77
2023/12/25 05:21:01;;;;;;;0.90;0.70;;;9.10;99.90;;;;;;5014403;28;20046;-78
2023/12/25 05:23:28;;;;;;;0.85;0.80;;;9.10;99.90;;;;;;5007115;28;20057;-78
2023/12/25 05:25:55;;;;;;;1.10;0.65;;;9.00;99.90;;;;;;5014770;28;20406;-79
2023/12/25 05:28:21;;;;;;;1.17;0.90;;;9.00;99.90;;;;;;5004449;28;20050;-77
2023/12/25 05:30:48;;;;;;;1.50;0.80;;;9.00;99.90;;;;;;5015570;28;20069;-78
2023/12/25 05:33:15;;;;;;;1.20;0.85;;;9.00;99.90;;;;;;5011737;28;20045;-78
2023/12/25 05:35:42;;;;;;;1.77;0.93;;;8.90;99.90;;;;;;5014936;28;20072;-78
2023/12/25 05:38:08;;;;;;;0.95;0.73;;;8.90;99.90;;;;;;4999446;28;20073;-79
2023/12/25 05:40:35;;;;;;;0.85;0.73;;;8.90;99.90;;;;;;4993540;28;20069;-78
2023/12/25 05:43:03;;;;;;;1.10;0.90;;;8.90;99.90;;;;;;5015987;28;20069;-79
2023/12/25 05:45:29;;;;;;;0.70;0.70;;;8.90;99.90;;;;;;5009419;28;20056;-79
2023/12/25 05:47:56;;;;;;;1.00;0.70;;;8.90;99.90;;;;;;5015545;28;20066;-79
2023/12/25 05:50:23;;;;;;;2.38;0.90;;;8.90;99.90;;;;;;5007050;28;20057;-79
2023/12/25 05:52:50;;;;;;;1.45;0.80;;;8.80;99.90;;;;;;5024526;28;20080;-79
2023/12/25 05:55:17;;;;;;;3.05;0.95;;;8.80;99.90;;;;;;5011147;28;20133;-78
2023/12/25 05:57:43;;;;;;;1.30;0.80;;;8.80;99.90;;;;;;5023274;28;20045;-77
2023/12/25 06:00:11;;;;;;;0.80;0.77;;;8.80;99.90;;;;;;5010825;28;20081;-78
2023/12/25 06:02:38;;;;;;;0.85;0.80;;;8.80;99.90;;;;;;5013914;28;20097;-79
2023/12/25 06:05:05;;;;;;;2.25;0.68;;;8.70;99.90;;;;;;5010127;28;20042;-79
2023/12/25 06:07:31;;;;;;;0.90;0.80;;;8.70;99.90;;;;;;5012920;28;20078;-78
2023/12/25 06:09:58;;;;;;;2.47;1.00;;;8.70;99.90;;;;;;5016042;28;20068;-79
2023/12/25 06:12:25;;;;;;;1.50;0.82;;;8.70;99.90;;;;;;4998383;28;20487;-80
2023/12/25 06:14:52;;;;;;;0.77;0.77;;;8.70;99.90;;;;;;5015817;28;20084;-78
2023/12/25 06:17:18;;;;;;;1.13;0.82;;;8.70;99.90;;;;;;5010456;28;20072;-79
2023/12/25 06:19:45;;;;;;;4.25;0.80;;;8.70;99.90;;;;;;5015066;28;20049;-79
2023/12/25 06:22:12;;;;;;;1.77;0.88;;;8.70;99.90;;;;;;5009335;28;20052;-79
2023/12/25 06:24:39;;;;;;;1.05;0.90;;;8.60;99.90;;;;;;5013815;28;20451;-78
2023/12/25 06:27:05;;;;;;;1.85;0.60;;;8.70;99.90;;;;;;5009308;28;20042;-78
2023/12/25 06:29:32;;;;;;;0.73;0.73;;;8.70;99.90;;;;;;5015786;28;20046;-80
2023/12/25 06:31:59;;;;;;;0.70;0.70;;;8.60;99.90;;;;;;5007235;28;20391;-79
2023/12/25 06:34:25;;;;;;;1.30;0.80;;;8.60;99.90;;;;;;5012869;28;20109;-80
2023/12/25 06:36:52;;;;;;;0.85;0.73;;;8.60;99.90;;;;;;5012340;28;20107;-80
2023/12/25 06:39:19;;;;;;;0.95;0.60;;;8.60;99.90;;;;;;4995973;28;20061;-79
2023/12/25 06:41:45;;;;;;;2.40;1.15;;;8.60;99.90;;;;;;5000481;28;20493;-79
2023/12/25 06:44:12;;;;;;;3.53;0.90;;;8.60;99.90;;;;;;5012977;28;20046;-80
2023/12/25 06:46:40;;;;;;;1.02;0.80;;;8.60;99.90;;;;;;5014897;28;20459;-78
2023/12/25 06:49:06;;;;;;;2.95;0.90;;;8.60;99.90;;;;;;5010753;28;20129;-78
2023/12/25 06:51:34;;;;;;;1.25;0.88;;;8.50;99.90;;;;;;5006580;28;20050;-81
2023/12/25 06:54:01;;;;;;;0.80;0.70;;;8.50;99.90;;;;;;5011859;28;20069;-78
2023/12/25 06:56:29;;;;;;;2.70;0.70;;;8.50;99.90;;;;;;5015800;28;20060;-79
2023/12/25 06:58:56;;;;;;;1.23;0.85;;;8.50;99.90;;;;;;5010254;28;20327;-79
2023/12/25 07:01:23;;;;;;;1.42;0.80;;;8.50;99.90;;;;;;5018546;28;20127;-79
2023/12/25 07:03:50;;;;;;;1.55;0.93;;;8.50;99.90;;;;;;5021501;28;20045;-79
2023/12/25 07:06:17;;;;;;;1.27;0.85;;;8.50;99.90;;;;;;5023059;28;20046;-79
2023/12/25 07:08:45;;;;;;;2.35;1.00;;;8.50;99.90;;;;;;5016702;28;20120;-79
2023/12/25 07:11:13;;;;;;;0.98;0.70;;;8.50;99.90;;;;;;5019220;28;20054;-79
2023/12/25 07:13:39;;;;;;;1.50;0.90;;;8.40;99.90;;;;;;5012590;28;20054;-79
2023/12/25 07:16:06;;;;;;;0.90;0.65;;;8.50;99.90;;;;;;5018616;28;20481;-79
2023/12/25 07:18:33;;;;;;;2.75;1.02;;;8.40;99.90;;;;;;5016421;28;20050;-80
2023/12/25 07:21:00;;;;;;;1.13;0.88;;;8.40;99.90;;;;;;5019526;28;20050;-80
2023/12/25 07:23:27;;;;;;;1.40;0.90;;;8.40;99.90;;;;;;5021318;28;20049;-78
2023/12/25 07:25:54;;;;;;;14.23;2.70;;;8.40;99.90;;;;;;5014112;28;20041;-78
2023/12/25 07:28:21;;;;;;;1.35;0.82;;;8.40;99.90;;;;;;5026237;28;20053;-79
2023/12/25 07:30:48;;;;;;;1.50;0.80;;;8.40;99.90;;;;;;5017027;28;20108;-80
2023/12/25 07:33:14;;;;;;;1.15;0.93;;;8.40;99.90;;;;;;5022505;28;20045;-78
2023/12/25 07:35:41;;;;;;;1.67;0.80;;;8.40;99.90;;;;;;5018820;28;20560;-80
2023/12/25 07:38:08;;;;;;;0.73;0.70;;;8.40;99.90;;;;;;5020590;28;20146;-79
2023/12/25 07:40:35;;;;;;;1.48;1.08;;;8.40;99.90;;;;;;5013941;28;20050;-79
2023/12/25 07:43:02;;;;;;;0.75;0.70;;;8.40;99.90;;;;;;5021339;28;20395;-80
2023/12/25 07:45:29;;;;;;;3.75;0.90;;;8.50;99.90;;;;;;5002801;28;20050;-79
2023/12/25 07:47:55;;;;;;;1.13;0.70;;;8.50;99.90;;;;;;5019564;28;20041;-79
2023/12/25 07:50:23;;;;;;;1.27;0.75;;;8.50;99.90;;;;;;5007672;28;20046;-79
2023/12/25 07:52:52;;;;;;;1.08;0.88;;;8.50;99.90;;;;;;5022638;28;20049;-79
2023/12/25 07:55:18;;;;;;;3.50;0.80;;;8.50;99.90;;;;;;5018394;28;20085;-80
2023/12/25 07:57:45;;;;;;;1.88;1.02;;;8.50;99.90;;;;;;5019478;28;20106;-79
2023/12/25 08:00:16;;;;;;;1.67;0.82;;;8.50;99.90;;;;;;5022404;28;20057;-78
2023/12/25 08:02:42;;;;;;;2.78;1.10;;;8.50;99.90;;;;;;5017963;28;20047;-80
2023/12/25 08:05:09;;;;;;;1.25;0.90;;;8.50;99.90;;;;;;5022265;28;20088;-80
2023/12/25 08:07:36;;;;;;;1.92;0.90;;;8.60;99.90;;;;;;5014982;28;20118;-80
2023/12/25 08:10:03;;;;;;;1.58;1.13;;;8.60;99.90;;;;;;5020155;28;20072;-80
2023/12/25 08:12:30;;;;;;;2.85;0.90;;;8.60;99.90;;;;;;5014786;28;20054;-79
2023/12/25 08:14:56;;;;;;;3.03;1.00;;;8.70;99.90;;;;;;5019357;28;20046;-80
2023/12/25 08:17:23;;;;;;;1.40;1.25;;;8.60;99.90;;;;;;5012811;28;20050;-80
2023/12/25 08:19:50;;;;;;;1.25;1.05;;;8.70;99.90;;;;;;5023799;28;20102;-79
2023/12/25 08:22:17;;;;;;;1.55;0.95;;;8.70;99.90;;;;;;5018636;28;20081;-80
2023/12/25 08:24:43;;;;;;;1.67;0.80;;;8.80;99.90;;;;;;5021929;28;20046;-79
2023/12/25 08:27:10;;;;;;;1.50;1.02;;;8.80;99.90;;;;;;5017826;28;20521;-80
2023/12/25 08:29:37;;;;;;;2.28;0.90;;;8.80;99.90;;;;;;5005611;28;20074;-77
2023/12/25 08:32:04;;;;;;;3.40;1.38;;;8.90;99.90;;;;;;5018572;28;20057;-78
2023/12/25 08:34:31;;;;;;;3.38;1.30;;;8.90;99.90;;;;;;5013189;28;20046;-80
2023/12/25 08:36:57;;;;;;;1.75;1.10;;;8.90;99.90;;;;;;5016644;28;20077;-78
2023/12/25 08:39:24;;;;;;;1.20;0.90;;;8.90;99.90;;;;;;5009986;28;20461;-78
2023/12/25 08:41:51;;;;;;;1.63;1.00;;;9.00;99.90;;;;;;5013925;28;20047;-78
2023/12/25 08:44:18;;;;;;;1.40;0.85;;;9.00;99.90;;;;;;5009723;28;20116;-79
2023/12/25 08:46:46;;;;;;;2.47;1.00;;;9.00;99.90;;;;;;5016763;28;20046;-78
2023/12/25 08:49:13;;;;;;;1.42;0.90;;;9.00;99.90;;;;;;5004990;28;20120;-79
2023/12/25 08:51:40;;;;;;;3.40;1.10;;;9.10;99.90;;;;;;5015495;28;20046;-78
2023/12/25 08:54:07;;;;;;;1.30;0.90;;;9.10;99.90;;;;;;5012579;28;20079;-78
2023/12/25 08:56:35;;;;;;;1.15;0.73;;;9.10;99.90;;;;;;5014154;28;20054;-78
2023/12/25 08:59:04;;;;;;;3.78;1.20;;;9.20;99.90;;;;;;4993187;28;20144;-78
2023/12/25 09:01:31;;;;;;;3.25;0.90;;;9.20;99.90;;;;;;5012867;28;20138;-78
2023/12/25 09:03:58;;;;;;;2.00;1.10;;;9.20;99.90;;;;;;5010463;28;20139;-78
2023/12/25 09:06:25;;;;;;;1.98;1.30;;;9.30;99.90;;;;;;5013482;28;20042;-79
2023/12/25 09:08:52;;;;;;;3.63;1.13;;;9.30;99.90;;;;;;5008595;28;20105;-77
2023/12/25 09:11:19;;;;;;;2.80;1.10;;;9.40;99.90;;;;;;5010381;28;20046;-78
2023/12/25 09:13:46;;;;;;;1.58;0.80;;;9.40;99.90;;;;;;5012080;28;20495;-78
2023/12/25 09:16:13;;;;;;;3.40;1.02;;;9.50;99.90;;;;;;5002377;28;20096;-78
2023/12/25 09:18:39;;;;;;;1.65;0.90;;;9.50;99.90;;;;;;5015869;28;20105;-78
2023/12/25 09:21:06;;;;;;;2.33;1.33;;;9.50;99.90;;;;;;5009868;28;20088;-78
2023/12/25 09:23:34;;;;;;;1.55;1.30;;;9.60;99.90;;;;;;5013643;28;20097;-79
2023/12/25 09:26:04;;;;;;;1.08;0.90;;;9.60;99.90;;;;;;5011864;28;20049;-80
2023/12/25 09:28:31;;;;;;;1.17;1.00;;;9.70;99.90;;;;;;5016104;28;20101;-79
2023/12/25 09:30:57;;;;;;;1.13;0.68;;;9.80;99.90;;;;;;5012249;28;20398;-80
2023/12/25 09:33:24;;;;;;;2.15;0.90;;;9.80;99.90;;;;;;5015901;28;20061;-80
2023/12/25 09:35:51;;;;;;;1.02;0.75;;;9.90;99.90;;;;;;5009700;28;20395;-78
2023/12/25 09:38:18;;;;;;;1.25;0.70;;;9.90;99.90;;;;;;5013537;28;20480;-78
2023/12/25 09:40:45;;;;;;;0.70;0.70;;;10.00;99.90;;;;;;4994054;28;20057;-79
2023/12/25 09:43:12;;;;;;;1.45;0.85;;;10.10;99.90;;;;;;5013962;28;20113;-79
2023/12/25 09:45:39;;;;;;;2.38;0.90;;;10.20;99.90;;;;;;5009409;28;20046;-79
2023/12/25 09:48:07;;;;;;;2.85;0.80;;;10.20;99.90;;;;;;5013686;28;20455;-78
2023/12/25 09:50:36;;;;;;;0.85;0.80;;;10.20;99.90;;;;;;5014732;28;20042;-79
2023/12/25 09:53:03;;;;;;;0.75;0.70;;;10.30;99.90;;;;;;5013701;28;20053;-79
2023/12/25 09:55:30;;;;;;;1.33;0.98;;;10.30;99.90;;;;;;5018287;28;20046;-78
2023/12/25 09:58:01;;;;;;;1.33;0.80;;;10.30;99.90;;;;;;4992120;28;20050;-79
2023/12/25 10:00:28;;;;;;;2.08;0.90;;;10.30;99.90;;;;;;5000940;28;20053;-79
2023/12/25 10:02:57;;;;;;;1.85;0.90;;;10.30;99.90;;;;;;5010393;28;20046;-80
2023/12/25 10:05:24;;;;;;;1.52;0.73;;;10.30;99.90;;;;;;5016211;28;20073;-78
2023/12/25 10:07:51;;;;;;;1.88;0.85;;;10.30;99.90;;;;;;5007616;28;20489;-79
2023/12/25 10:10:18;;;;;;;3.05;1.23;;;10.30;99.90;;;;;;5015700;28;20489;-79
2023/12/25 10:12:45;;;;;;;2.92;1.25;;;10.20;99.90;;;;;;5012922;28;20100;-79
2023/12/25 10:15:13;;;;;;;2.38;0.80;;;10.20;99.90;;;;;;5014141;28;20045;-79
2023/12/25 10:17:40;;;;;;;1.55;1.10;;;10.20;99.90;;;;;;5010744;28;20057;-79
2023/12/25 10:20:10;;;;;;;3.15;1.00;;;10.20;99.90;;;;;;5012106;28;20053;-80
2023/12/25 10:22:38;;;;;;;1.85;0.90;;;10.10;99.90;;;;;;5016040;28;20064;-80
2023/12/25 10:25:11;;;;;;;1.45;0.80;;;10.20;99.90;;;;;;5020187;28;20405;-80
2023/12/25 10:27:40;;;;;;;2.20;0.90;;;10.20;99.90;;;;;;5014642;28;20045;-79
2023/12/25 10:30:21;;;;;;;3.30;1.10;;;10.20;99.90;;;;;;4987797;28;20046;-78
2023/12/25 10:32:49;;;;;;;3.00;0.90;;;10.20;99.90;;;;;;5016049;28;20498;-79
2023/12/25 10:35:18;;;;;;;2.60;0.60;;;10.20;99.90;;;;;;5008391;28;20050;-77
2023/12/25 10:37:46;;;;;;;2.20;0.63;;;10.20;99.90;;;;;;5013965;28;20054;-80
2023/12/25 10:40:21;;;;;;;1.70;0.73;;;10.30;99.90;;;;;;4992968;28;20049;-81
2023/12/25 10:42:53;;;;;;;3.78;0.85;;;10.30;99.90;;;;;;5013257;28;20052;-78
2023/12/25 10:45:22;;;;;;;1.25;0.75;;;10.40;99.90;;;;;;5016683;28;20077;-80
2023/12/25 10:47:53;;;;;;;4.13;1.00;;;10.30;99.90;;;;;;5010809;28;20050;-79
2023/12/25 10:50:26;;;;;;;2.60;1.10;;;10.30;99.90;;;;;;5015673;28;20059;-79
2023/12/25 10:52:57;;;;;;;3.03;1.08;;;10.30;99.90;;;;;;5011293;28;20050;-79
2023/12/25 10:55:32;;;;;;;2.10;1.02;;;10.30;99.90;;;;;;5015622;28;20058;-80
2023/12/25 10:58:00;;;;;;;1.00;0.75;;;10.40;99.90;;;;;;5012133;28;20057;-80
2023/12/25 11:00:28;;;;;;;3.97;0.80;;;10.30;99.90;;;;;;5017649;28;20161;-78
2023/12/25 11:03:00;;;;;;;2.25;1.10;;;10.40;99.90;;;;;;5011567;28;20046;-78
2023/12/25 11:05:28;;;;;;;1.00;0.75;;;10.50;99.90;;;;;;5020789;28;20045;-79
2023/12/25 11:07:55;;;;;;;3.10;0.95;;;10.50;99.90;;;;;;5020974;28;20494;-78
2023/12/25 11:10:22;;;;;;;2.15;0.80;;;10.60;99.90;;;;;;5011450;28;20042;-77
2023/12/25 11:12:50;;;;;;;5.60;2.30;;;10.70;99.90;;;;;;5010434;28;20265;-78
2023/12/25 11:15:17;;;;;;;4.38;1.77;;;10.70;99.90;;;;;;5011411;28;20137;-79
2023/12/25 11:17:44;;;;;;;4.07;1.00;;;10.80;99.90;;;;;;5013012;28;20058;-78
2023/12/25 11:20:12;;;;;;;4.60;2.00;;;10.90;99.90;;;;;;5007398;28;20274;-80
2023/12/25 11:22:46;;;;;;;2.83;1.00;;;11.00;99.90;;;;;;5015076;28;20493;-79
2023/12/25 11:25:15;;;;;;;2.25;0.80;;;11.00;99.90;;;;;;5008323;28;20077;-80
2023/12/25 11:27:53;;;;;;;0.90;0.68;;;11.00;99.90;;;;;;5013180;28;20050;-80
2023/12/25 11:30:23;;;;;;;4.35;0.80;;;11.10;99.90;;;;;;5010087;28;20098;-80
2023/12/25 11:32:51;;;;;;;1.75;1.05;;;11.10;99.90;;;;;;5013174;28;20096;-79
2023/12/25 11:35:44;;;;;;;1.25;0.75;;;11.10;99.90;;;;;;5008708;28;20087;-78
2023/12/25 11:38:21;;;;;;;1.35;0.98;;;11.10;99.90;;;;;;5004123;28;20058;-78
2023/12/25 11:40:51;;;;;;;1.33;0.70;;;11.10;99.90;;;;;;5012449;28;20058;-78
2023/12/25 11:43:19;;;;;;;;;;;11.20;99.90;;;;;;5009859;28;20077;-78
2023/12/25 11:45:47;;;;;;;1.70;1.00;;;11.20;99.90;;;;;;5011393;28;20444;-78
2023/12/25 11:48:14;;;;;;;2.83;1.00;;;11.20;99.90;;;;;;5005570;28;20050;-78
2023/12/25 11:50:45;;;;;;;1.38;0.95;;;11.20;99.90;;;;;;5013424;28;20128;-78
2023/12/25 11:53:36;;;;;;;1.75;1.23;;;11.20;99.90;;;;;;5012905;28;20056;-79
2023/12/25 11:56:04;;;;;;;1.60;1.13;;;11.30;99.90;;;;;;5015767;28;20065;-80
2023/12/25 11:58:31;;;;;;;0.98;0.80;;;11.30;99.90;;;;;;5012893;28;20128;-80
2023/12/25 12:00:58;;;;;;;3.80;1.25;;;11.30;99.90;;;;;;5012620;28;20081;-77
2023/12/25 12:03:24;;;;;;;2.45;1.30;;;11.30;99.90;;;;;;5016760;28;20513;-78
2023/12/25 12:05:53;;;;;;;2.38;1.10;;;11.40;99.90;;;;;;5005006;28;20070;-79
2023/12/25 12:08:19;;;;;;;1.70;1.05;;;11.40;99.90;;;;;;5023728;28;20045;-79
2023/12/25 12:10:46;;;;;;;1.10;0.95;;;11.40;99.90;;;;;;5015910;28;20077;-78
2023/12/25 12:13:13;;;;;;;2.00;1.08;;;11.40;99.90;;;;;;5028074;28;20480;-79
2023/12/25 12:15:40;;;;;;;3.33;1.15;;;11.40;99.90;;;;;;5016936;28;20114;-80
2023/12/25 12:18:06;;;;;;;2.50;0.90;;;11.30;99.90;;;;;;5022407;28;20130;-80
2023/12/25 12:20:34;;;;;;;1.20;0.90;;;11.30;99.90;;;;;;5009759;28;20045;-80
2023/12/25 12:23:00;;;;;;;2.10;0.93;;;11.20;99.90;;;;;;5018634;28;20058;-79
2023/12/25 12:25:29;;;;;;;4.05;1.10;;;11.20;99.90;;;;;;5014918;28;20083;-80
2023/12/25 12:27:58;;;;;;;1.30;0.93;;;11.20;99.90;;;;;;5017689;28;20097;-79
2023/12/25 12:30:25;;;;;;;0.73;0.70;;;11.20;99.90;;;;;;5010336;28;20116;-80
2023/12/25 12:32:51;;;;;;;4.60;1.60;;;11.20;99.90;;;;;;5015721;28;20078;-79
2023/12/25 12:35:19;;;;;;;3.47;1.13;;;11.20;99.90;;;;;;5001645;28;20038;-80
2023/12/25 12:37:45;;;;;;;1.73;0.77;;;11.20;99.90;;;;;;5014607;28;20050;-78
2023/12/25 12:40:12;;;;;;;1.98;0.80;;;11.20;99.90;;;;;;5016694;28;20069;-80
2023/12/25 12:42:39;;;;;;;1.70;0.80;;;11.20;99.90;;;;;;5012975;28;20092;-79
2023/12/25 12:45:06;;;;;;;1.83;0.82;;;11.20;99.90;;;;;;5027603;28;20053;-79
2023/12/25 12:47:33;;;;;;;1.60;0.60;;;11.20;99.90;;;;;;5011136;28;20133;-78
2023/12/25 12:50:03;;;;;;;3.08;1.00;;;11.20;99.90;;;;;;5018963;28;20079;-79
2023/12/25 12:52:30;;;;;;;1.30;0.70;;;11.20;99.90;;;;;;4989359;28;20549;-79